createdAt,value
2023-05-01T00:00:10.207Z,54.92
2023-05-01T00:01:10.304Z,54.77
2023-05-01T00:02:10.253Z,54.47
2023-05-01T00:03:10.446Z,54.43
2023-05-01T00:04:10.636Z,54.33
2023-05-01T00:05:10.447Z,54.05
2023-05-01T00:06:10.461Z,53.65
2023-05-01T00:07:10.386Z,54.88
2023-05-01T00:08:11.407Z,54.41
2023-05-01T00:09:10.454Z,53.87
2023-05-01T00:10:10.524Z,53.58
2023-05-01T00:11:10.514Z,53.80
2023-05-01T00:12:10.503Z,53.76
2023-05-01T00:13:10.551Z,53.97
2023-05-01T00:14:10.563Z,53.59
2023-05-01T00:15:10.545Z,53.46
2023-05-01T00:16:10.654Z,53.49
2023-05-01T00:17:10.587Z,53.27
2023-05-01T00:18:10.631Z,53.21
2023-05-01T00:19:10.628Z,53.15
2023-05-01T00:20:10.601Z,53.40
2023-05-01T00:21:10.598Z,53.21
2023-05-01T00:22:10.609Z,53.00
2023-05-01T00:23:10.621Z,52.81
2023-05-01T00:24:10.729Z,53.43
2023-05-01T00:25:10.792Z,54.26
2023-05-01T00:26:10.769Z,53.75
2023-05-01T00:27:10.790Z,53.74
2023-05-01T00:28:10.827Z,53.92
2023-05-01T00:29:10.780Z,53.32
2023-05-01T00:30:10.819Z,53.23
2023-05-01T00:31:10.803Z,53.38
2023-05-01T00:32:10.976Z,53.60
2023-05-01T00:33:10.905Z,53.41
2023-05-01T00:34:10.858Z,53.24
2023-05-01T00:35:10.985Z,53.97
2023-05-01T00:36:11.010Z,54.05
2023-05-01T00:37:11.020Z,54.04
2023-05-01T00:38:11.039Z,53.87
2023-05-01T00:39:11.050Z,53.52
2023-05-01T00:40:11.083Z,53.50
2023-05-01T00:41:11.046Z,53.39
2023-05-01T00:42:11.061Z,53.51
2023-05-01T00:43:11.032Z,53.47
2023-05-01T00:44:11.170Z,53.17
2023-05-01T00:45:11.070Z,53.07
2023-05-01T00:46:11.113Z,52.91
2023-05-01T00:47:11.154Z,52.60
2023-05-01T00:48:11.255Z,52.45
2023-05-01T00:49:11.136Z,52.34
2023-05-01T00:50:11.208Z,52.28
2023-05-01T00:51:11.272Z,52.22
2023-05-01T00:52:11.310Z,52.12
2023-05-01T00:53:11.394Z,52.04
2023-05-01T00:54:11.454Z,52.13
2023-05-01T00:55:11.459Z,52.47
2023-05-01T00:56:11.532Z,52.17
2023-05-01T00:57:11.608Z,52.20
2023-05-01T00:58:11.621Z,52.04
2023-05-01T00:59:11.684Z,52.11
2023-05-01T01:00:11.729Z,52.22
2023-05-01T01:01:11.744Z,52.56
2023-05-01T01:02:11.797Z,52.16
2023-05-01T01:03:11.867Z,52.00
2023-05-01T01:04:11.954Z,52.82
2023-05-01T01:05:11.934Z,52.48
2023-05-01T01:06:11.971Z,52.35
2023-05-01T01:07:11.993Z,52.48
2023-05-01T01:08:12.012Z,52.32
2023-05-01T01:09:12.050Z,52.64
2023-05-01T01:10:12.054Z,53.11
2023-05-01T01:11:12.005Z,53.09
2023-05-01T01:12:12.083Z,53.73
2023-05-01T01:13:12.148Z,53.60
2023-05-01T01:14:12.271Z,53.32
2023-05-01T01:15:12.186Z,53.17
2023-05-01T01:16:13.892Z,53.30
2023-05-01T01:17:12.304Z,53.15
2023-05-01T01:18:12.292Z,52.83
2023-05-01T01:19:12.266Z,53.20
2023-05-01T01:20:12.336Z,53.35
2023-05-01T01:21:12.298Z,53.38
2023-05-01T01:22:12.328Z,53.14
2023-05-01T01:23:12.344Z,52.94
2023-05-01T01:24:12.379Z,53.53
2023-05-01T01:25:12.555Z,54.01
2023-05-01T01:26:12.394Z,54.33
2023-05-01T01:27:12.464Z,54.28
2023-05-01T01:28:12.486Z,54.62
2023-05-01T01:29:12.500Z,53.87
2023-05-01T01:30:12.585Z,54.05
2023-05-01T01:31:12.564Z,53.97
2023-05-01T01:32:12.556Z,53.78
2023-05-01T01:33:12.581Z,53.99
2023-05-01T01:34:12.645Z,54.20
2023-05-01T01:35:12.619Z,53.93
2023-05-01T01:36:12.676Z,53.72
2023-05-01T01:37:12.647Z,53.81
2023-05-01T01:38:12.676Z,53.77
2023-05-01T01:39:12.744Z,53.60
2023-05-01T01:40:12.721Z,53.50
2023-05-01T01:41:12.798Z,53.54
2023-05-01T01:42:12.850Z,54.04
2023-05-01T01:43:12.778Z,54.25
2023-05-01T01:44:12.789Z,54.27
2023-05-01T01:45:12.870Z,54.64
2023-05-01T01:46:12.998Z,54.53
2023-05-01T01:47:12.855Z,54.11
2023-05-01T01:48:12.901Z,54.08
2023-05-01T01:49:12.912Z,53.94
2023-05-01T01:50:12.910Z,53.72
2023-05-01T01:51:13.792Z,53.46
2023-05-01T01:52:12.952Z,53.25
2023-05-01T01:53:13.010Z,53.35
2023-05-01T01:54:13.049Z,53.30
2023-05-01T01:55:13.063Z,53.44
2023-05-01T01:56:13.102Z,54.09
2023-05-01T01:57:13.142Z,54.26
2023-05-01T01:58:13.157Z,53.88
2023-05-01T01:59:13.152Z,53.71
2023-05-01T02:00:13.154Z,54.01
2023-05-01T02:01:13.329Z,54.08
2023-05-01T02:02:13.453Z,53.86
2023-05-01T02:03:13.381Z,53.82
2023-05-01T02:04:13.389Z,54.54
2023-05-01T02:05:13.366Z,54.29
2023-05-01T02:06:13.385Z,54.02
2023-05-01T02:07:13.354Z,53.88
2023-05-01T02:08:13.375Z,53.61
2023-05-01T02:09:13.378Z,53.53
2023-05-01T02:10:13.413Z,53.24
2023-05-01T02:11:13.506Z,52.97
2023-05-01T02:12:13.459Z,52.96
2023-05-01T02:13:13.507Z,52.97
2023-05-01T02:14:13.507Z,53.01
2023-05-01T02:15:13.526Z,52.90
2023-05-01T02:16:13.564Z,52.96
2023-05-01T02:17:13.507Z,53.21
2023-05-01T02:18:13.523Z,53.10
2023-05-01T02:19:13.581Z,53.20
2023-05-01T02:20:13.628Z,52.98
2023-05-01T02:21:13.627Z,52.77
2023-05-01T02:22:13.791Z,52.66
2023-05-01T02:23:13.727Z,52.45
2023-05-01T02:24:13.723Z,52.41
2023-05-01T02:25:13.696Z,52.46
2023-05-01T02:26:13.711Z,52.39
2023-05-01T02:27:13.752Z,52.28
2023-05-01T02:28:13.766Z,53.29
2023-05-01T02:29:13.766Z,53.46
2023-05-01T02:30:13.819Z,53.36
2023-05-01T02:31:13.891Z,54.02
2023-05-01T02:32:13.871Z,53.56
2023-05-01T02:33:13.939Z,53.20
2023-05-01T02:34:13.936Z,53.08
2023-05-01T02:35:13.966Z,52.80
2023-05-01T02:36:13.959Z,53.05
2023-05-01T02:37:13.979Z,52.96
2023-05-01T02:38:14.010Z,52.83
2023-05-01T02:39:14.163Z,53.01
2023-05-01T02:40:14.135Z,52.93
2023-05-01T02:41:14.200Z,52.88
2023-05-01T02:42:14.216Z,52.66
2023-05-01T02:43:14.214Z,52.64
2023-05-01T02:44:14.254Z,52.60
2023-05-01T02:45:14.222Z,52.50
2023-05-01T02:46:14.289Z,52.49
2023-05-01T02:47:14.325Z,52.37
2023-05-01T02:48:14.359Z,52.17
2023-05-01T02:49:14.306Z,52.06
2023-05-01T02:50:14.279Z,52.00
2023-05-01T02:51:14.322Z,52.16
2023-05-01T02:52:14.354Z,52.34
2023-05-01T02:53:14.370Z,52.23
2023-05-01T02:54:14.361Z,52.26
2023-05-01T02:55:14.341Z,52.18
2023-05-01T02:56:16.349Z,52.25
2023-05-01T02:57:14.395Z,52.15
2023-05-01T02:58:14.441Z,52.09
2023-05-01T02:59:14.399Z,52.02
2023-05-01T03:00:14.543Z,52.01
2023-05-01T03:01:14.681Z,52.01
2023-05-01T03:02:14.529Z,52.55
2023-05-01T03:03:14.691Z,53.19
2023-05-01T03:04:14.710Z,53.26
2023-05-01T03:05:14.594Z,53.02
2023-05-01T03:06:14.644Z,53.03
2023-05-01T03:07:14.620Z,52.91
2023-05-01T03:08:14.641Z,52.71
2023-05-01T03:09:14.613Z,52.65
2023-05-01T03:10:14.684Z,52.52
2023-05-01T03:11:14.689Z,52.48
2023-05-01T03:12:14.665Z,52.46
2023-05-01T03:13:14.682Z,52.45
2023-05-01T03:14:14.773Z,52.43
2023-05-01T03:15:14.790Z,52.89
2023-05-01T03:16:14.781Z,52.71
2023-05-01T03:17:14.863Z,52.80
2023-05-01T03:18:14.734Z,52.91
2023-05-01T03:19:14.738Z,53.06
2023-05-01T03:20:14.762Z,53.13
2023-05-01T03:21:14.876Z,53.12
2023-05-01T03:22:14.910Z,52.94
2023-05-01T03:23:14.914Z,52.71
2023-05-01T03:24:14.967Z,52.82
2023-05-01T03:25:14.947Z,52.76
2023-05-01T03:26:14.977Z,52.99
2023-05-01T03:27:14.991Z,53.51
2023-05-01T03:28:15.025Z,53.19
2023-05-01T03:29:14.992Z,53.07
2023-05-01T03:30:15.034Z,52.84
2023-05-01T03:31:15.069Z,52.85
2023-05-01T03:32:15.206Z,53.07
2023-05-01T03:33:15.172Z,53.15
2023-05-01T03:34:15.097Z,54.06
2023-05-01T03:35:15.249Z,54.78
2023-05-01T03:36:15.222Z,54.34
2023-05-01T03:37:15.200Z,54.33
2023-05-01T03:38:15.200Z,54.33
2023-05-01T03:39:15.244Z,54.07
2023-05-01T03:40:15.230Z,53.70
2023-05-01T03:41:15.247Z,53.68
2023-05-01T03:42:15.300Z,53.50
2023-05-01T03:43:15.345Z,53.38
2023-05-01T03:44:15.413Z,53.50
2023-05-01T03:45:15.440Z,53.34
2023-05-01T03:46:15.517Z,53.44
2023-05-01T03:47:15.490Z,53.99
2023-05-01T03:48:15.535Z,53.40
2023-05-01T03:49:15.579Z,52.87
2023-05-01T03:50:15.569Z,52.54
2023-05-01T03:51:15.612Z,52.46
2023-05-01T03:52:15.636Z,52.42
2023-05-01T03:53:15.678Z,52.29
2023-05-01T03:54:15.703Z,52.20
2023-05-01T03:55:15.772Z,52.02
2023-05-01T03:56:15.769Z,51.93
2023-05-01T03:57:15.894Z,51.85
2023-05-01T03:58:15.822Z,51.93
2023-05-01T03:59:15.846Z,51.90
2023-05-01T04:00:15.873Z,51.83
2023-05-01T04:01:15.886Z,51.82
2023-05-01T04:02:15.957Z,52.36
2023-05-01T04:03:16.029Z,52.39
2023-05-01T04:04:16.022Z,53.29
2023-05-01T04:05:16.058Z,53.21
2023-05-01T04:06:16.057Z,53.26
2023-05-01T04:07:16.046Z,53.11
2023-05-01T04:08:16.130Z,52.92
2023-05-01T04:09:16.161Z,52.82
2023-05-01T04:10:16.105Z,53.26
2023-05-01T04:11:16.116Z,54.33
2023-05-01T04:12:16.138Z,54.52
2023-05-01T04:13:16.211Z,54.44
2023-05-01T04:14:16.226Z,54.41
2023-05-01T04:15:16.244Z,53.94
2023-05-01T04:16:16.394Z,53.69
2023-05-01T04:17:16.280Z,53.54
2023-05-01T04:18:16.367Z,53.31
2023-05-01T04:19:16.345Z,53.25
2023-05-01T04:20:16.392Z,53.65
2023-05-01T04:21:16.462Z,54.43
2023-05-01T04:22:16.549Z,54.30
2023-05-01T04:23:16.544Z,54.23
2023-05-01T04:24:16.508Z,54.19
2023-05-01T04:25:16.531Z,54.09
2023-05-01T04:26:16.579Z,54.16
2023-05-01T04:27:16.569Z,54.10
2023-05-01T04:28:16.553Z,53.93
2023-05-01T04:29:16.593Z,53.92
2023-05-01T04:30:16.626Z,54.06
2023-05-01T04:31:16.796Z,54.22
2023-05-01T04:32:16.719Z,54.07
2023-05-01T04:33:16.689Z,53.96
2023-05-01T04:34:16.767Z,53.90
2023-05-01T04:35:16.764Z,53.80
2023-05-01T04:36:16.802Z,53.56
2023-05-01T04:37:16.777Z,53.37
2023-05-01T04:38:16.769Z,53.62
2023-05-01T04:39:16.810Z,54.13
2023-05-01T04:40:16.840Z,54.03
2023-05-01T04:41:16.932Z,54.33
2023-05-01T04:42:16.949Z,54.31
2023-05-01T04:43:16.976Z,54.23
2023-05-01T04:44:17.042Z,54.29
2023-05-01T04:45:16.992Z,54.78
2023-05-01T04:46:17.001Z,55.08
2023-05-01T04:47:17.038Z,55.91
2023-05-01T04:48:17.117Z,55.61
2023-05-01T04:49:17.107Z,55.51
2023-05-01T04:50:17.157Z,56.26
2023-05-01T04:51:17.406Z,56.24
2023-05-01T04:52:17.210Z,56.75
2023-05-01T04:53:17.274Z,56.21
2023-05-01T04:54:17.349Z,56.02
2023-05-01T04:55:17.321Z,55.87
2023-05-01T04:56:17.445Z,55.67
2023-05-01T04:57:17.520Z,55.78
2023-05-01T04:58:17.420Z,55.68
2023-05-01T04:59:17.551Z,55.70
2023-05-01T05:00:17.542Z,55.38
2023-05-01T05:01:17.588Z,55.45
2023-05-01T05:02:17.535Z,55.26
2023-05-01T05:03:18.498Z,55.82
2023-05-01T05:04:17.553Z,55.82
2023-05-01T05:05:17.577Z,55.73
2023-05-01T05:06:17.645Z,55.83
2023-05-01T05:07:17.604Z,55.76
2023-05-01T05:08:17.637Z,55.98
2023-05-01T05:09:20.049Z,56.86
2023-05-01T05:10:17.925Z,56.46
2023-05-01T05:11:17.902Z,56.10
2023-05-01T05:12:17.919Z,56.04
2023-05-01T05:13:17.940Z,56.16
2023-05-01T05:14:17.997Z,55.47
2023-05-01T05:15:17.997Z,55.18
2023-05-01T05:16:18.066Z,54.86
2023-05-01T05:17:18.077Z,55.02
2023-05-01T05:18:18.127Z,55.27
2023-05-01T05:19:18.239Z,55.78
2023-05-01T05:20:18.097Z,55.22
2023-05-01T05:21:18.191Z,54.89
2023-05-01T05:22:18.160Z,54.60
2023-05-01T05:23:18.248Z,54.72
2023-05-01T05:24:18.280Z,54.78
2023-05-01T05:25:18.350Z,54.68
2023-05-01T05:26:18.269Z,54.68
2023-05-01T05:27:18.331Z,54.34
2023-05-01T05:28:18.885Z,54.72
2023-05-01T05:29:18.398Z,54.41
2023-05-01T05:30:18.363Z,54.30
2023-05-01T05:31:18.452Z,53.95
2023-05-01T05:32:18.555Z,53.88
2023-05-01T05:33:18.509Z,53.26
2023-05-01T05:34:18.675Z,52.86
2023-05-01T05:35:18.532Z,52.41
2023-05-01T05:36:18.628Z,51.86
2023-05-01T05:37:18.603Z,52.00
2023-05-01T05:38:18.577Z,51.87
2023-05-01T05:39:18.602Z,51.73
2023-05-01T05:40:18.654Z,52.12
2023-05-01T05:41:18.670Z,52.09
2023-05-01T05:42:18.732Z,52.10
2023-05-01T05:43:18.784Z,52.15
2023-05-01T05:44:18.794Z,52.10
2023-05-01T05:45:18.819Z,52.21
2023-05-01T05:46:18.920Z,52.41
2023-05-01T05:47:18.910Z,52.60
2023-05-01T05:48:18.981Z,51.86
2023-05-01T05:49:19.109Z,52.01
2023-05-01T05:50:19.055Z,51.92
2023-05-01T05:51:19.017Z,51.57
2023-05-01T05:52:19.095Z,52.24
2023-05-01T05:53:19.053Z,52.37
2023-05-01T05:54:19.089Z,52.96
2023-05-01T05:55:19.190Z,54.03
2023-05-01T05:56:19.205Z,53.48
2023-05-01T05:57:19.261Z,53.70
2023-05-01T05:58:19.250Z,52.60
2023-05-01T05:59:19.263Z,52.48
2023-05-01T06:00:19.282Z,52.18
2023-05-01T06:01:19.358Z,53.74
2023-05-01T06:02:19.412Z,53.06
2023-05-01T06:03:19.533Z,51.97
2023-05-01T06:04:19.474Z,52.01
2023-05-01T06:05:19.576Z,52.07
2023-05-01T06:06:19.626Z,51.95
2023-05-01T06:07:19.874Z,52.02
2023-05-01T06:08:19.593Z,51.87
2023-05-01T06:09:19.620Z,51.39
2023-05-01T06:10:19.724Z,50.90
2023-05-01T06:11:19.749Z,50.86
2023-05-01T06:12:19.766Z,50.97
2023-05-01T06:13:19.834Z,51.16
2023-05-01T06:14:19.766Z,50.63
2023-05-01T06:15:19.811Z,50.45
2023-05-01T06:16:19.810Z,50.18
2023-05-01T06:17:19.750Z,49.81
2023-05-01T06:18:19.852Z,49.73
2023-05-01T06:19:19.830Z,50.66
2023-05-01T06:20:19.856Z,49.61
2023-05-01T06:21:19.905Z,49.26
2023-05-01T06:22:19.939Z,49.17
2023-05-01T06:23:19.935Z,49.19
2023-05-01T06:24:19.928Z,48.82
2023-05-01T06:25:19.958Z,48.76
2023-05-01T06:26:19.973Z,48.97
2023-05-01T06:27:19.997Z,49.02
2023-05-01T06:28:20.014Z,48.46
2023-05-01T06:29:20.149Z,48.75
2023-05-01T06:30:20.158Z,49.17
2023-05-01T06:31:20.196Z,48.62
2023-05-01T06:32:20.295Z,48.56
2023-05-01T06:33:20.349Z,48.32
2023-05-01T06:34:20.378Z,48.88
2023-05-01T06:35:20.400Z,48.71
2023-05-01T06:36:20.455Z,48.57
2023-05-01T06:37:20.917Z,48.36
2023-05-01T06:38:20.526Z,48.60
2023-05-01T06:39:20.569Z,48.73
2023-05-01T06:40:20.629Z,49.19
2023-05-01T06:41:20.651Z,49.10
2023-05-01T06:42:20.747Z,49.80
2023-05-01T06:43:20.872Z,48.83
2023-05-01T06:44:20.908Z,49.46
2023-05-01T06:45:20.872Z,48.92
2023-05-01T06:46:21.002Z,49.78
2023-05-01T06:47:21.053Z,49.29
2023-05-01T06:48:21.008Z,49.61
2023-05-01T06:49:20.951Z,49.40
2023-05-01T06:50:21.033Z,49.43
2023-05-01T06:51:21.012Z,49.67
2023-05-01T06:52:21.059Z,49.04
2023-05-01T06:53:21.122Z,49.12
2023-05-01T06:54:21.102Z,48.29
2023-05-01T06:55:21.098Z,48.85
2023-05-01T06:56:21.146Z,48.49
2023-05-01T06:57:21.183Z,47.65
2023-05-01T06:58:24.395Z,47.59
2023-05-01T06:59:21.190Z,47.34
2023-05-01T07:00:21.228Z,47.78
2023-05-01T07:01:21.291Z,47.95
2023-05-01T07:02:21.291Z,47.59
2023-05-01T07:03:21.374Z,47.68
2023-05-01T07:04:21.150Z,47.89
2023-05-01T07:05:21.154Z,46.45
2023-05-01T07:06:21.182Z,45.77
2023-05-01T07:07:21.152Z,46.84
2023-05-01T07:08:21.136Z,46.02
2023-05-01T07:09:21.152Z,45.99
2023-05-01T07:10:21.182Z,45.43
2023-05-01T07:11:21.084Z,45.57
2023-05-01T07:12:21.120Z,45.48
2023-05-01T07:13:21.099Z,46.25
2023-05-01T07:14:21.154Z,47.01
2023-05-01T07:15:21.053Z,48.39
2023-05-01T07:16:21.128Z,49.59
2023-05-01T07:17:21.253Z,48.06
2023-05-01T07:18:21.062Z,48.54
2023-05-01T07:19:21.114Z,48.15
2023-05-01T07:20:21.066Z,47.29
2023-05-01T07:21:21.137Z,46.98
2023-05-01T07:22:21.023Z,46.96
2023-05-01T07:23:20.997Z,46.78
2023-05-01T07:24:21.967Z,46.82
2023-05-01T07:25:21.040Z,46.76
2023-05-01T07:26:21.028Z,46.12
2023-05-01T07:27:21.041Z,46.44
2023-05-01T07:28:21.032Z,46.27
2023-05-01T07:29:20.992Z,46.75
2023-05-01T07:30:20.994Z,46.41
2023-05-01T07:31:21.068Z,45.86
2023-05-01T07:32:21.618Z,45.73
2023-05-01T07:33:21.212Z,45.68
2023-05-01T07:34:20.958Z,45.25
2023-05-01T07:35:21.998Z,45.46
2023-05-01T07:36:20.971Z,46.13
2023-05-01T07:37:20.949Z,46.08
2023-05-01T07:38:21.011Z,46.17
2023-05-01T07:39:20.883Z,46.26
2023-05-01T07:40:20.937Z,46.10
2023-05-01T07:41:20.907Z,46.08
2023-05-01T07:42:20.888Z,45.84
2023-05-01T07:43:20.863Z,45.99
2023-05-01T07:44:20.907Z,45.94
2023-05-01T07:45:20.952Z,45.75
2023-05-01T07:46:20.880Z,45.64
2023-05-01T07:47:21.020Z,45.91
2023-05-01T07:48:20.881Z,45.72
2023-05-01T07:49:20.854Z,45.42
2023-05-01T07:50:20.837Z,45.25
2023-05-01T07:51:20.858Z,44.75
2023-05-01T07:52:21.382Z,44.94
2023-05-01T07:53:20.828Z,44.70
2023-05-01T07:54:20.865Z,44.21
2023-05-01T07:55:20.868Z,43.89
2023-05-01T07:56:20.933Z,44.02
2023-05-01T07:57:20.993Z,44.86
2023-05-01T07:58:21.030Z,45.48
2023-05-01T07:59:21.103Z,44.66
2023-05-01T08:00:21.062Z,44.62
2023-05-01T08:01:21.131Z,45.35
2023-05-01T08:02:21.220Z,44.96
2023-05-01T08:03:21.268Z,44.28
2023-05-01T08:04:21.325Z,43.87
2023-05-01T08:05:21.202Z,44.52
2023-05-01T08:06:21.334Z,45.11
2023-05-01T08:07:21.393Z,44.55
2023-05-01T08:08:21.396Z,44.51
2023-05-01T08:09:21.477Z,44.85
2023-05-01T08:10:21.439Z,45.09
2023-05-01T08:11:21.465Z,44.45
2023-05-01T08:12:21.920Z,43.75
2023-05-01T08:13:21.614Z,43.38
2023-05-01T08:14:21.576Z,43.69
2023-05-01T08:15:21.607Z,43.53
2023-05-01T08:16:22.299Z,43.39
2023-05-01T08:17:21.727Z,43.49
2023-05-01T08:18:21.672Z,43.32
2023-05-01T08:19:21.696Z,43.23
2023-05-01T08:20:21.782Z,43.45
2023-05-01T08:21:21.737Z,43.71
2023-05-01T08:22:21.756Z,43.76
2023-05-01T08:23:21.790Z,43.41
2023-05-01T08:24:21.803Z,42.39
2023-05-01T08:25:21.840Z,42.34
2023-05-01T08:26:22.616Z,42.09
2023-05-01T08:27:21.920Z,42.18
2023-05-01T08:28:21.936Z,42.19
2023-05-01T08:29:22.000Z,42.51
2023-05-01T08:30:21.978Z,42.66
2023-05-01T08:31:22.030Z,43.63
2023-05-01T08:32:22.669Z,44.05
2023-05-01T08:33:22.019Z,44.05
2023-05-01T08:34:22.052Z,43.81
2023-05-01T08:35:22.014Z,44.27
2023-05-01T08:36:22.097Z,44.77
2023-05-01T08:37:22.512Z,45.87
2023-05-01T08:38:22.135Z,46.35
2023-05-01T08:39:22.184Z,44.33
2023-05-01T08:40:22.288Z,43.94
2023-05-01T08:41:22.270Z,43.53
2023-05-01T08:42:22.415Z,43.49
2023-05-01T08:43:22.371Z,42.78
2023-05-01T08:44:22.439Z,41.63
2023-05-01T08:45:22.510Z,42.50
2023-05-01T08:46:22.483Z,41.84
2023-05-01T08:47:22.607Z,43.13
2023-05-01T08:48:22.519Z,42.07
2023-05-01T08:49:22.545Z,41.86
2023-05-01T08:50:22.690Z,42.07
2023-05-01T08:51:22.687Z,42.37
2023-05-01T08:52:22.684Z,42.55
2023-05-01T08:53:22.674Z,42.71
2023-05-01T08:54:22.693Z,42.10
2023-05-01T08:55:22.795Z,42.36
2023-05-01T08:56:22.741Z,41.19
2023-05-01T08:57:22.741Z,41.74
2023-05-01T08:58:22.798Z,41.72
2023-05-01T08:59:22.871Z,41.83
2023-05-01T09:00:22.972Z,44.62
2023-05-01T09:01:22.895Z,43.58
2023-05-01T09:02:22.956Z,42.86
2023-05-01T09:03:22.935Z,41.65
2023-05-01T09:04:23.093Z,41.71
2023-05-01T09:05:22.886Z,42.86
2023-05-01T09:06:22.975Z,42.21
2023-05-01T09:07:23.036Z,41.12
2023-05-01T09:08:22.991Z,43.02
2023-05-01T09:09:23.064Z,41.43
2023-05-01T09:10:23.031Z,42.32
2023-05-01T09:11:23.083Z,41.47
2023-05-01T09:12:23.070Z,43.27
2023-05-01T09:13:23.162Z,43.90
2023-05-01T09:14:23.212Z,41.72
2023-05-01T09:15:23.196Z,41.94
2023-05-01T09:16:23.289Z,41.44
2023-05-01T09:17:23.253Z,40.74
2023-05-01T09:18:23.313Z,41.38
2023-05-01T09:19:23.308Z,41.46
2023-05-01T09:20:23.319Z,42.46
2023-05-01T09:21:23.380Z,42.53
2023-05-01T09:22:23.455Z,42.77
2023-05-01T09:23:23.484Z,42.31
2023-05-01T09:24:23.495Z,41.95
2023-05-01T09:25:23.570Z,43.06
2023-05-01T09:26:23.604Z,42.56
2023-05-01T09:27:23.672Z,42.29
2023-05-01T09:28:23.764Z,42.07
2023-05-01T09:29:23.705Z,40.90
2023-05-01T09:30:23.769Z,40.93
2023-05-01T09:31:23.924Z,41.29
2023-05-01T09:32:23.928Z,42.44
2023-05-01T09:33:23.958Z,42.16
2023-05-01T09:34:23.948Z,43.38
2023-05-01T09:35:24.058Z,43.73
2023-05-01T09:36:24.058Z,41.52
2023-05-01T09:37:24.099Z,41.58
2023-05-01T09:38:25.929Z,41.17
2023-05-01T09:39:24.157Z,40.41
2023-05-01T09:40:24.168Z,39.79
2023-05-01T09:41:24.236Z,40.84
2023-05-01T09:42:24.252Z,41.52
2023-05-01T09:43:24.299Z,40.69
2023-05-01T09:44:24.359Z,40.08
2023-05-01T09:45:24.372Z,40.56
2023-05-01T09:46:24.487Z,39.23
2023-05-01T09:47:24.420Z,43.99
2023-05-01T09:48:24.455Z,41.17
2023-05-01T09:49:24.482Z,40.76
2023-05-01T09:50:24.508Z,40.63
2023-05-01T09:51:24.545Z,41.20
2023-05-01T09:52:24.573Z,40.22
2023-05-01T09:53:24.934Z,40.23
2023-05-01T09:54:24.665Z,40.13
2023-05-01T09:55:25.641Z,40.21
2023-05-01T09:56:27.461Z,39.22
2023-05-01T09:57:24.688Z,40.60
2023-05-01T09:58:24.652Z,40.20
2023-05-01T09:59:24.671Z,39.83
2023-05-01T10:00:24.700Z,40.61
2023-05-01T10:01:24.678Z,39.75
2023-05-01T10:02:24.707Z,40.68
2023-05-01T10:03:25.177Z,41.19
2023-05-01T10:04:24.632Z,41.53
2023-05-01T10:05:24.672Z,40.42
2023-05-01T10:06:24.660Z,40.42
2023-05-01T10:07:24.618Z,41.17
2023-05-01T10:08:24.585Z,38.97
2023-05-01T10:09:24.688Z,40.66
2023-05-01T10:10:24.575Z,39.40
2023-05-01T10:11:24.593Z,38.89
2023-05-01T10:12:24.589Z,39.18
2023-05-01T10:13:24.561Z,38.82
2023-05-01T10:14:24.565Z,37.65
2023-05-01T10:15:26.764Z,37.67
2023-05-01T10:16:24.752Z,37.31
2023-05-01T10:17:24.888Z,37.46
2023-05-01T10:18:24.875Z,38.67
2023-05-01T10:19:24.866Z,38.64
2023-05-01T10:20:24.885Z,38.56
2023-05-01T10:21:24.945Z,37.88
2023-05-01T10:22:24.961Z,37.66
2023-05-01T10:23:25.021Z,37.15
2023-05-01T10:24:25.101Z,36.71
2023-05-01T10:25:25.117Z,35.92
2023-05-01T10:26:25.258Z,35.96
2023-05-01T10:27:25.254Z,36.03
2023-05-01T10:28:25.335Z,35.56
2023-05-01T10:29:25.366Z,36.49
2023-05-01T10:30:25.410Z,36.09
2023-05-01T10:31:25.540Z,35.63
2023-05-01T10:32:25.489Z,35.16
2023-05-01T10:33:25.971Z,35.57
2023-05-01T10:34:27.042Z,35.01
2023-05-01T10:35:25.559Z,34.74
2023-05-01T10:36:25.572Z,34.10
2023-05-01T10:37:25.598Z,32.71
2023-05-01T10:38:25.575Z,32.40
2023-05-01T10:39:25.527Z,32.76
2023-05-01T10:40:25.528Z,33.26
2023-05-01T10:41:25.555Z,32.94
2023-05-01T10:42:25.512Z,32.52
2023-05-01T10:43:25.522Z,32.75
2023-05-01T10:44:25.496Z,32.68
2023-05-01T10:45:25.517Z,31.55
2023-05-01T10:46:25.530Z,31.83
2023-05-01T10:47:25.626Z,35.08
2023-05-01T10:48:25.485Z,33.93
2023-05-01T10:49:25.492Z,33.58
2023-05-01T10:50:25.456Z,33.64
2023-05-01T10:51:27.694Z,33.82
2023-05-01T10:52:25.458Z,33.79
2023-05-01T10:53:25.445Z,34.08
2023-05-01T10:54:25.413Z,34.03
2023-05-01T10:55:25.437Z,34.22
2023-05-01T10:56:25.506Z,34.19
2023-05-01T10:57:25.433Z,34.27
2023-05-01T10:58:25.460Z,34.60
2023-05-01T10:59:25.413Z,34.59
2023-05-01T11:00:25.414Z,34.38
2023-05-01T11:01:25.398Z,34.09
2023-05-01T11:02:25.495Z,33.99
2023-05-01T11:03:25.516Z,33.92
2023-05-01T11:04:25.463Z,34.07
2023-05-01T11:05:35.929Z,34.24
2023-05-01T11:06:26.489Z,34.40
2023-05-01T11:07:25.367Z,34.68
2023-05-01T11:08:25.343Z,34.79
2023-05-01T11:09:25.314Z,34.76
2023-05-01T11:10:25.330Z,34.74
2023-05-01T11:11:25.344Z,35.15
2023-05-01T11:12:25.309Z,36.67
2023-05-01T11:13:25.347Z,37.59
2023-05-01T11:14:25.291Z,37.77
2023-05-01T11:15:25.313Z,37.05
2023-05-01T11:16:25.359Z,36.06
2023-05-01T11:17:26.021Z,36.47
2023-05-01T11:18:25.417Z,36.41
2023-05-01T11:19:26.209Z,36.68
2023-05-01T11:20:25.519Z,36.49
2023-05-01T11:21:25.536Z,37.54
2023-05-01T11:22:25.577Z,35.53
2023-05-01T11:23:25.613Z,37.17
2023-05-01T11:24:25.629Z,36.81
2023-05-01T11:25:25.621Z,39.90
2023-05-01T11:26:25.653Z,40.69
2023-05-01T11:27:25.689Z,39.86
2023-05-01T11:28:25.731Z,39.11
2023-05-01T11:29:25.719Z,39.14
2023-05-01T11:30:25.838Z,38.14
2023-05-01T11:31:25.851Z,38.41
2023-05-01T11:32:25.828Z,39.45
2023-05-01T11:33:25.888Z,38.85
2023-05-01T11:34:25.866Z,39.59
2023-05-01T11:35:25.985Z,40.04
2023-05-01T11:36:25.961Z,39.41
2023-05-01T11:37:25.977Z,38.01
2023-05-01T11:38:25.993Z,37.68
2023-05-01T11:39:26.010Z,37.56
2023-05-01T11:40:26.068Z,37.59
2023-05-01T11:41:26.165Z,37.58
2023-05-01T11:42:26.163Z,38.80
2023-05-01T11:43:26.137Z,38.49
2023-05-01T11:44:26.162Z,40.04
2023-05-01T11:45:26.125Z,39.59
2023-05-01T11:46:26.311Z,40.12
2023-05-01T11:47:26.219Z,37.87
2023-05-01T11:48:26.156Z,38.67
2023-05-01T11:49:26.152Z,37.77
2023-05-01T11:50:26.215Z,39.30
2023-05-01T11:51:26.236Z,39.69
2023-05-01T11:52:26.250Z,39.70
2023-05-01T11:53:26.275Z,40.27
2023-05-01T11:54:26.328Z,40.36
2023-05-01T11:55:26.340Z,39.69
2023-05-01T11:56:27.459Z,40.34
2023-05-01T11:57:26.392Z,40.72
2023-05-01T11:58:26.497Z,40.89
2023-05-01T11:59:26.517Z,42.53
2023-05-01T12:00:26.563Z,42.36
2023-05-01T12:01:26.585Z,43.58
2023-05-01T12:02:26.735Z,43.18
2023-05-01T12:03:26.997Z,42.41
2023-05-01T12:04:29.663Z,42.50
2023-05-01T12:05:27.621Z,42.07
2023-05-01T12:06:26.693Z,42.27
2023-05-01T12:07:26.630Z,44.21
2023-05-01T12:08:26.604Z,43.49
2023-05-01T12:09:26.650Z,43.06
2023-05-01T12:10:26.611Z,42.85
2023-05-01T12:11:26.588Z,42.45
2023-05-01T12:12:26.612Z,42.50
2023-05-01T12:13:26.601Z,45.00
2023-05-01T12:14:26.567Z,45.15
2023-05-01T12:15:26.640Z,44.27
2023-05-01T12:16:26.666Z,43.32
2023-05-01T12:17:26.803Z,42.41
2023-05-01T12:18:26.823Z,43.54
2023-05-01T12:19:26.820Z,42.99
2023-05-01T12:20:26.896Z,45.51
2023-05-01T12:21:26.879Z,46.78
2023-05-01T12:22:26.869Z,47.87
2023-05-01T12:23:26.887Z,48.19
2023-05-01T12:24:26.969Z,47.76
2023-05-01T12:25:27.000Z,48.90
2023-05-01T12:26:27.045Z,49.93
2023-05-01T12:27:27.086Z,49.54
2023-05-01T12:28:27.129Z,50.04
2023-05-01T12:29:27.149Z,47.68
2023-05-01T12:30:27.155Z,45.58
2023-05-01T12:31:27.217Z,47.40
2023-05-01T12:32:27.267Z,48.23
2023-05-01T12:33:27.497Z,47.60
2023-05-01T12:34:27.317Z,49.33
2023-05-01T12:35:27.365Z,47.83
2023-05-01T12:36:27.546Z,49.77
2023-05-01T12:37:27.444Z,46.08
2023-05-01T12:38:27.433Z,47.52
2023-05-01T12:39:27.477Z,45.75
2023-05-01T12:40:27.544Z,45.42
2023-05-01T12:41:27.544Z,43.59
2023-05-01T12:42:27.523Z,43.67
2023-05-01T12:43:27.565Z,42.18
2023-05-01T12:44:27.662Z,43.86
2023-05-01T12:45:27.677Z,38.75
2023-05-01T12:46:27.758Z,42.45
2023-05-01T12:47:27.921Z,40.78
2023-05-01T12:48:27.893Z,36.86
2023-05-01T12:49:27.770Z,37.31
2023-05-01T12:50:27.971Z,38.22
2023-05-01T12:51:27.864Z,35.59
2023-05-01T12:52:27.888Z,36.09